createdAt,value
2023-03-27T00:01:12.928Z,41.00
2023-03-27T00:03:40.871Z,28.67
2023-03-27T00:06:20.163Z,9.67
2023-03-27T00:08:50.677Z,9.00
2023-03-27T00:11:21.481Z,13.67
2023-03-27T00:13:51.475Z,10.00
2023-03-27T00:16:24.143Z,21.67
2023-03-27T00:18:52.966Z,23.00
2023-03-27T00:21:22.396Z,19.33
2023-03-27T00:23:49.317Z,36.33
2023-03-27T00:26:17.271Z,28.67
2023-03-27T00:28:44.075Z,19.67
2023-03-27T00:31:13.235Z,20.00
2023-03-27T00:33:41.108Z,16.00
2023-03-27T00:36:08.820Z,10.00
2023-03-27T00:38:37.145Z,19.33
2023-03-27T00:41:05.127Z,10.33
2023-03-27T00:43:35.050Z,12.67
2023-03-27T00:46:46.745Z,11.67
2023-03-27T00:49:16.764Z,23.67
2023-03-27T00:51:47.414Z,14.00
2023-03-27T00:54:26.381Z,13.00
2023-03-27T00:57:01.605Z,8.00
2023-03-27T00:59:36.394Z,31.33
2023-03-27T01:02:04.807Z,32.33
2023-03-27T01:04:33.380Z,35.00
2023-03-27T01:07:01.013Z,42.00
2023-03-27T01:09:29.019Z,20.00
2023-03-27T01:12:11.307Z,24.00
2023-03-27T01:15:20.882Z,20.33
2023-03-27T01:18:19.346Z,16.33
2023-03-27T01:21:13.704Z,20.00
2023-03-27T01:24:00.166Z,18.00
2023-03-27T01:26:49.026Z,10.67
2023-03-27T01:29:48.354Z,8.00
2023-03-27T01:32:46.888Z,12.00
2023-03-27T01:35:32.609Z,9.00
2023-03-27T01:38:18.578Z,8.67
2023-03-27T01:41:05.796Z,9.00
2023-03-27T01:43:32.620Z,7.00
2023-03-27T01:46:09.428Z,7.67
2023-03-27T01:49:01.451Z,7.33
2023-03-27T01:51:37.396Z,7.33
2023-03-27T01:54:29.661Z,8.00
2023-03-27T01:57:22.299Z,7.33
2023-03-27T01:59:58.536Z,5.00
2023-03-27T02:02:52.620Z,7.00
2023-03-27T02:05:38.231Z,10.00
2023-03-27T02:08:24.743Z,10.00
2023-03-27T02:10:58.594Z,12.00
2023-03-27T02:14:09.582Z,15.00
2023-03-27T02:16:46.287Z,9.00
2023-03-27T02:19:20.702Z,6.33
2023-03-27T02:21:48.234Z,10.00
2023-03-27T02:24:19.388Z,5.67
2023-03-27T02:26:52.736Z,8.33
2023-03-27T02:29:41.573Z,5.67
2023-03-27T02:32:37.223Z,10.00
2023-03-27T02:35:04.167Z,8.00
2023-03-27T02:37:44.491Z,9.00
2023-03-27T02:40:26.360Z,8.67
2023-03-27T02:43:28.984Z,7.25
2023-03-27T02:46:15.362Z,6.00
2023-03-27T02:48:51.831Z,5.00
2023-03-27T02:51:28.853Z,8.00
2023-03-27T02:54:11.504Z,7.00
2023-03-27T02:56:44.760Z,6.33
2023-03-27T02:59:25.058Z,9.33
2023-03-27T03:01:53.513Z,6.00
2023-03-27T03:04:31.917Z,8.00
2023-03-27T03:07:27.905Z,6.33
2023-03-27T03:09:55.432Z,7.67
2023-03-27T03:12:23.318Z,8.00
2023-03-27T03:14:51.092Z,7.00
2023-03-27T03:17:18.032Z,7.00
2023-03-27T03:19:45.822Z,7.00
2023-03-27T03:22:13.262Z,6.00
2023-03-27T03:24:42.639Z,9.00
2023-03-27T03:27:14.446Z,8.00
2023-03-27T03:29:50.956Z,7.33
2023-03-27T03:32:25.352Z,7.00
2023-03-27T03:34:53.674Z,9.00
2023-03-27T03:37:21.405Z,5.00
2023-03-27T03:39:48.265Z,7.67
2023-03-27T03:42:22.377Z,8.00
2023-03-27T03:44:51.418Z,8.00
2023-03-27T03:47:20.612Z,7.33
2023-03-27T03:49:48.033Z,8.00
2023-03-27T03:52:14.846Z,8.33
2023-03-27T03:54:42.097Z,8.67
2023-03-27T03:57:09.545Z,8.33
2023-03-27T03:59:36.694Z,12.33
2023-03-27T04:02:28.706Z,14.33
2023-03-27T04:05:17.081Z,8.33
2023-03-27T04:07:46.335Z,11.67
2023-03-27T04:10:23.219Z,14.33
2023-03-27T04:12:51.322Z,16.00
2023-03-27T04:15:22.569Z,18.67
2023-03-27T04:18:25.153Z,13.33
2023-03-27T04:20:54.489Z,14.33
2023-03-27T04:23:30.438Z,9.33
2023-03-27T04:26:03.541Z,20.33
2023-03-27T04:28:52.231Z,13.00
2023-03-27T04:31:47.037Z,7.00
2023-03-27T04:34:32.390Z,15.33
2023-03-27T04:37:08.440Z,11.67
2023-03-27T04:39:43.302Z,8.00
2023-03-27T04:42:10.671Z,6.00
2023-03-27T04:44:39.220Z,13.67
2023-03-27T04:47:08.679Z,12.00
2023-03-27T04:49:42.408Z,13.00
2023-03-27T04:52:36.058Z,12.00
2023-03-27T04:55:05.050Z,7.33
2023-03-27T04:57:33.310Z,6.33
2023-03-27T05:00:08.271Z,6.00
2023-03-27T05:02:56.250Z,12.33
2023-03-27T05:05:50.229Z,23.67
2023-03-27T05:08:18.270Z,24.67
2023-03-27T05:10:45.824Z,22.67
2023-03-27T05:13:12.906Z,17.00
2023-03-27T05:15:40.493Z,12.00
2023-03-27T05:18:09.704Z,12.67
2023-03-27T05:20:37.020Z,13.00
2023-03-27T05:23:08.417Z,12.33
2023-03-27T05:25:39.452Z,9.67
2023-03-27T05:28:11.342Z,11.00
2023-03-27T05:30:38.277Z,4.00
2023-03-27T05:33:25.888Z,8.33
2023-03-27T05:35:54.584Z,21.33
2023-03-27T05:38:22.820Z,12.33
2023-03-27T05:41:07.358Z,19.00
2023-03-27T05:43:39.111Z,30.67
2023-03-27T05:46:06.147Z,38.25
2023-03-27T05:48:33.246Z,14.33
2023-03-27T05:51:02.926Z,19.33
2023-03-27T05:53:29.812Z,24.67
2023-03-27T05:56:16.881Z,39.25
2023-03-27T05:58:56.310Z,29.33
2023-03-27T06:01:24.756Z,34.50
2023-03-27T06:03:56.090Z,49.25
2023-03-27T06:06:28.377Z,53.25
2023-03-27T06:08:59.480Z,45.00
2023-03-27T06:11:28.146Z,21.25
2023-03-27T06:13:58.052Z,22.33
2023-03-27T06:16:36.338Z,27.00
2023-03-27T06:19:03.088Z,21.00
2023-03-27T06:21:30.169Z,38.00
2023-03-27T06:23:59.371Z,24.33
2023-03-27T06:26:28.342Z,35.50
2023-03-27T06:28:56.856Z,47.25
2023-03-27T06:31:24.643Z,51.00
2023-03-27T06:34:11.091Z,35.00
2023-03-27T06:36:46.318Z,35.75
2023-03-27T06:39:13.413Z,30.67
2023-03-27T06:41:47.509Z,36.25
2023-03-27T06:44:25.147Z,30.33
2023-03-27T06:47:10.734Z,43.75
2023-03-27T06:50:00.258Z,44.50
2023-03-27T06:52:27.063Z,45.75
2023-03-27T06:55:00.350Z,24.33
2023-03-27T06:57:27.558Z,27.00
2023-03-27T07:00:01.644Z,35.50
2023-03-27T07:02:53.747Z,25.67
2023-03-27T07:05:45.578Z,36.25
2023-03-27T07:08:23.520Z,28.67
2023-03-27T07:13:25.251Z,38.25
2023-03-27T07:15:52.817Z,34.00
2023-03-27T07:18:22.011Z,27.00
2023-03-27T07:20:50.891Z,16.00
2023-03-27T07:23:21.548Z,15.67
2023-03-27T07:26:01.893Z,18.33
2023-03-27T07:28:51.889Z,24.67
2023-03-27T07:31:36.506Z,42.25
2023-03-27T07:34:07.210Z,52.25
2023-03-27T07:36:54.657Z,35.00
2023-03-27T07:39:22.112Z,24.00
2023-03-27T07:41:49.139Z,32.33
2023-03-27T07:44:26.521Z,44.75
2023-03-27T07:47:01.101Z,48.00
2023-03-27T07:49:38.804Z,48.50
2023-03-27T07:52:11.093Z,45.00
2023-03-27T07:54:48.192Z,51.25
2023-03-27T07:57:16.671Z,41.75
2023-03-27T07:59:52.887Z,46.50
2023-03-27T08:02:43.648Z,48.25
2023-03-27T08:05:11.548Z,23.67
2023-03-27T08:07:40.965Z,33.00
2023-03-27T08:10:09.399Z,38.25
2023-03-27T08:12:48.680Z,33.67
2023-03-27T08:15:15.892Z,31.00
2023-03-27T08:17:42.941Z,45.25
2023-03-27T08:20:15.351Z,42.00
2023-03-27T08:22:47.203Z,23.00
2023-03-27T08:25:37.189Z,20.33
2023-03-27T08:28:08.184Z,28.00
2023-03-27T08:30:35.477Z,36.00
2023-03-27T08:33:04.108Z,28.00
2023-03-27T08:35:31.700Z,19.00
2023-03-27T08:37:59.105Z,16.33
2023-03-27T08:40:29.680Z,9.33
2023-03-27T08:43:27.329Z,36.25
2023-03-27T08:46:06.589Z,6.00
2023-03-27T08:48:44.117Z,12.00
2023-03-27T08:51:22.619Z,5.25
2023-03-27T08:54:11.329Z,14.67
2023-03-27T08:56:38.592Z,12.00
2023-03-27T08:59:14.958Z,13.33
2023-03-27T09:02:02.092Z,18.67
2023-03-27T09:05:04.047Z,19.00
2023-03-27T09:08:00.399Z,24.67
2023-03-27T09:10:46.984Z,27.00
2023-03-27T09:13:51.230Z,28.67
2023-03-27T09:16:29.740Z,33.67
2023-03-27T09:19:07.015Z,26.00
2023-03-27T09:21:46.017Z,23.67
2023-03-27T09:24:39.339Z,28.33
2023-03-27T09:27:37.780Z,24.33
2023-03-27T09:30:32.746Z,20.25
2023-03-27T09:33:06.336Z,20.25
2023-03-27T09:35:35.628Z,16.75
2023-03-27T09:38:10.355Z,20.25
2023-03-27T09:40:53.381Z,20.25
2023-03-27T09:43:39.457Z,27.00
2023-03-27T09:46:07.843Z,19.50
2023-03-27T09:48:50.505Z,21.50
2023-03-27T09:51:39.870Z,19.00
2023-03-27T09:54:14.503Z,19.00
2023-03-27T09:56:46.455Z,25.33
2023-03-27T09:59:30.640Z,21.50
2023-03-27T10:02:43.140Z,19.25
2023-03-27T10:05:20.130Z,17.50
2023-03-27T10:07:51.977Z,19.50
2023-03-27T10:10:59.000Z,20.50
2023-03-27T10:13:49.562Z,18.25
2023-03-27T10:16:22.435Z,21.25
2023-03-27T10:19:00.568Z,35.67
2023-03-27T10:21:42.067Z,11.25
2023-03-27T10:24:35.968Z,4.00
2023-03-27T10:27:35.182Z,6.00
2023-03-27T10:30:27.501Z,7.33
2023-03-27T10:33:01.651Z,17.33
2023-03-27T10:35:53.195Z,25.33
2023-03-27T10:38:27.806Z,8.67
2023-03-27T10:41:17.625Z,11.33
2023-03-27T10:43:57.482Z,2.33
2023-03-27T10:46:27.443Z,5.00
2023-03-27T10:49:17.603Z,6.00
2023-03-27T10:51:52.723Z,1.00
2023-03-27T10:54:32.318Z,5.00
2023-03-27T10:57:06.186Z,7.00
2023-03-27T10:59:44.225Z,21.00
2023-03-27T11:02:28.031Z,5.00
2023-03-27T11:05:28.067Z,6.00
2023-03-27T11:08:12.348Z,6.33
2023-03-27T11:10:44.784Z,9.67
2023-03-27T11:13:33.510Z,5.00
2023-03-27T11:16:10.070Z,10.00
2023-03-27T11:19:23.514Z,14.00
2023-03-27T11:22:19.729Z,12.00
2023-03-27T11:24:57.069Z,13.33
2023-03-27T11:27:58.384Z,6.00
2023-03-27T11:30:33.602Z,17.00
2023-03-27T11:33:24.235Z,23.67
2023-03-27T11:36:29.986Z,34.67
2023-03-27T11:39:36.580Z,19.00
2023-03-27T11:42:24.907Z,19.67
2023-03-27T11:44:52.663Z,15.33
2023-03-27T11:47:58.408Z,4.00
2023-03-27T11:50:33.917Z,9.67
2023-03-27T11:53:03.644Z,20.33
2023-03-27T11:56:09.714Z,8.00
2023-03-27T11:58:44.043Z,4.33
2023-03-27T12:01:48.864Z,23.00
2023-03-27T12:04:28.360Z,6.00
2023-03-27T12:07:36.123Z,4.67
2023-03-27T12:10:27.454Z,8.00
2023-03-27T12:14:02.668Z,8.33
2023-03-27T12:16:52.634Z,12.33
2023-03-27T12:19:45.007Z,12.00
2023-03-27T12:22:37.002Z,3.67
2023-03-27T12:25:15.377Z,13.67
2023-03-27T12:28:28.084Z,9.00
2023-03-27T12:31:25.376Z,6.33
2023-03-27T12:34:02.399Z,10.00
2023-03-27T12:36:37.982Z,5.00
2023-03-27T12:39:17.901Z,9.33
2023-03-27T12:41:46.104Z,18.67
2023-03-27T12:45:06.465Z,8.00
2023-03-27T12:47:33.341Z,13.67
2023-03-27T12:50:19.555Z,8.67
2023-03-27T12:52:48.030Z,7.67
2023-03-27T12:55:21.199Z,15.33
2023-03-27T12:57:58.060Z,9.33
2023-03-27T13:01:00.801Z,11.00
2023-03-27T13:04:22.491Z,12.00
2023-03-27T13:07:01.477Z,11.00
2023-03-27T13:10:20.512Z,14.00
2023-03-27T13:13:29.502Z,12.67
2023-03-27T13:16:20.390Z,5.00
2023-03-27T13:19:27.544Z,3.00
2023-03-27T13:22:33.216Z,5.33
2023-03-27T13:25:22.996Z,5.00
2023-03-27T13:28:28.338Z,11.00
2023-03-27T13:31:07.397Z,6.00
2023-03-27T13:34:28.869Z,8.00
2023-03-27T13:37:10.141Z,7.00
2023-03-27T13:40:02.141Z,9.00
2023-03-27T13:42:37.742Z,9.00
2023-03-27T13:45:20.477Z,25.00
2023-03-27T13:48:28.762Z,31.33
2023-03-27T13:51:22.652Z,59.50
2023-03-27T13:54:04.961Z,11.33
2023-03-27T13:56:57.629Z,18.33
2023-03-27T13:59:47.258Z,9.67
2023-03-27T14:02:43.228Z,5.00
2023-03-27T14:05:43.183Z,7.67
2023-03-27T14:08:28.602Z,28.67
2023-03-27T14:11:32.255Z,27.00
2023-03-27T14:14:24.440Z,22.67
2023-03-27T14:17:26.797Z,13.00
2023-03-27T14:20:19.136Z,4.00
2023-03-27T14:23:03.831Z,6.00
2023-03-27T14:25:53.745Z,8.33
2023-03-27T14:28:58.990Z,9.00
2023-03-27T14:31:44.310Z,7.67
2023-03-27T14:34:47.343Z,3.67
2023-03-27T14:37:39.147Z,10.33
2023-03-27T14:40:29.655Z,16.33
2023-03-27T14:43:01.662Z,4.00
2023-03-27T14:45:39.419Z,12.67
2023-03-27T14:48:17.607Z,11.67
2023-03-27T14:50:50.420Z,11.33
2023-03-27T14:53:26.328Z,6.00
2023-03-27T14:56:37.276Z,5.00
2023-03-27T14:59:26.814Z,19.67
2023-03-27T15:02:00.018Z,8.00
2023-03-27T15:04:30.112Z,5.00
2023-03-27T15:07:13.373Z,8.33
2023-03-27T15:10:20.625Z,8.00
2023-03-27T15:13:26.835Z,8.67
2023-03-27T15:15:58.857Z,3.00
2023-03-27T15:18:36.233Z,10.67
2023-03-27T15:21:09.058Z,9.33
2023-03-27T15:23:42.544Z,13.00
2023-03-27T15:26:30.378Z,9.33
2023-03-27T15:29:21.529Z,11.67
2023-03-27T15:31:51.094Z,14.33
2023-03-27T15:34:37.919Z,9.33
2023-03-27T15:37:11.516Z,14.33
2023-03-27T15:40:00.598Z,20.00
2023-03-27T15:42:51.147Z,19.33
2023-03-27T15:45:34.310Z,40.50
2023-03-27T15:48:21.104Z,14.00
2023-03-27T15:50:55.989Z,36.50
2023-03-27T15:53:39.794Z,15.00
2023-03-27T15:56:25.216Z,11.33
2023-03-27T15:59:01.807Z,10.33
2023-03-27T16:01:34.832Z,8.67
2023-03-27T16:04:08.453Z,7.67
2023-03-27T16:06:39.701Z,12.33
2023-03-27T16:09:29.837Z,6.67
2023-03-27T16:11:58.649Z,12.00
2023-03-27T16:14:28.701Z,9.33
2023-03-27T16:17:19.933Z,15.67
2023-03-27T16:19:56.659Z,18.67
2023-03-27T16:22:32.250Z,7.33
2023-03-27T16:25:01.322Z,20.33
2023-03-27T16:27:40.351Z,28.33
2023-03-27T16:30:10.753Z,21.00
2023-03-27T16:32:38.189Z,20.67
2023-03-27T16:35:05.436Z,23.33
2023-03-27T16:37:32.433Z,13.67
2023-03-27T16:39:59.529Z,16.00
2023-03-27T16:42:26.617Z,10.67
2023-03-27T16:44:54.197Z,19.67
2023-03-27T16:47:23.235Z,11.00
2023-03-27T16:50:07.433Z,16.67
2023-03-27T16:52:36.901Z,17.33
2023-03-27T16:55:07.204Z,20.33
2023-03-27T16:57:36.480Z,23.33
2023-03-27T17:00:05.446Z,12.67
2023-03-27T17:02:35.149Z,22.67
2023-03-27T17:05:06.972Z,29.75
2023-03-27T17:07:34.210Z,66.75
2023-03-27T17:10:01.234Z,27.50
2023-03-27T17:12:32.344Z,44.00
2023-03-27T17:14:59.766Z,60.50
2023-03-27T17:17:30.631Z,27.00
2023-03-27T17:19:57.952Z,20.00
2023-03-27T17:22:26.495Z,14.67
2023-03-27T17:24:57.352Z,15.00
2023-03-27T17:27:26.859Z,12.00
2023-03-27T17:29:56.366Z,19.50
2023-03-27T17:32:25.086Z,24.25
2023-03-27T17:34:52.452Z,27.25
2023-03-27T17:37:21.025Z,41.75
2023-03-27T17:39:48.944Z,80.75
2023-03-27T17:42:16.462Z,18.00
2023-03-27T17:44:45.143Z,9.67
2023-03-27T17:47:13.140Z,25.67
2023-03-27T17:49:41.185Z,10.67
2023-03-27T17:52:11.244Z,11.33
2023-03-27T17:54:38.946Z,3.00
2023-03-27T17:57:06.570Z,4.67
2023-03-27T17:59:34.614Z,8.00
2023-03-27T18:02:01.813Z,25.50
2023-03-27T18:04:29.401Z,39.75
2023-03-27T18:06:56.635Z,13.50
2023-03-27T18:09:23.655Z,44.50
2023-03-27T18:11:50.923Z,19.50
2023-03-27T18:14:17.734Z,35.50
2023-03-27T18:16:44.573Z,13.75
2023-03-27T18:19:12.482Z,4.00
2023-03-27T18:21:39.284Z,4.33
2023-03-27T18:24:06.548Z,4.33
2023-03-27T18:26:33.778Z,20.25
2023-03-27T18:29:00.667Z,12.00
2023-03-27T18:31:28.068Z,5.75
2023-03-27T18:33:54.931Z,11.25
2023-03-27T18:36:22.274Z,26.50
2023-03-27T18:38:50.171Z,10.00
2023-03-27T18:41:17.861Z,15.00
2023-03-27T18:43:45.121Z,11.50
2023-03-27T18:46:16.943Z,15.50
2023-03-27T18:48:46.395Z,21.25
2023-03-27T18:51:13.608Z,25.75
2023-03-27T18:53:43.231Z,15.00
2023-03-27T18:56:10.765Z,15.00
2023-03-27T18:58:37.680Z,22.75
2023-03-27T19:01:09.349Z,15.75
2023-03-27T19:03:38.021Z,15.00
2023-03-27T19:06:07.191Z,6.50
2023-03-27T19:08:38.005Z,16.75
2023-03-27T19:11:06.173Z,20.25
2023-03-27T19:13:52.033Z,16.75
2023-03-27T19:16:43.714Z,24.00
2023-03-27T19:19:17.407Z,14.50
2023-03-27T19:21:56.881Z,14.00
2023-03-27T19:24:31.360Z,9.00
2023-03-27T19:26:59.138Z,9.00
2023-03-27T19:29:29.228Z,21.25
2023-03-27T19:31:57.324Z,11.75
2023-03-27T19:34:36.399Z,16.25
2023-03-27T19:37:09.262Z,14.50
2023-03-27T19:39:36.126Z,14.50
2023-03-27T19:42:03.082Z,15.75
2023-03-27T19:44:32.016Z,15.25
2023-03-27T19:46:59.123Z,32.75
2023-03-27T19:49:26.538Z,13.75
2023-03-27T19:52:11.982Z,25.00
2023-03-27T19:54:42.060Z,17.25
2023-03-27T19:57:09.536Z,26.50
2023-03-27T19:59:36.498Z,24.25
2023-03-27T20:02:04.316Z,18.25
2023-03-27T20:04:33.796Z,22.50
2023-03-27T20:07:02.255Z,13.75
2023-03-27T20:09:31.697Z,27.00
2023-03-27T20:11:59.198Z,16.00
2023-03-27T20:14:29.536Z,22.75
2023-03-27T20:16:56.591Z,17.25
2023-03-27T20:19:27.028Z,18.00
2023-03-27T20:21:55.769Z,13.00
2023-03-27T20:24:23.354Z,20.25
2023-03-27T20:26:57.621Z,17.50
2023-03-27T20:29:26.287Z,18.00
2023-03-27T20:31:53.353Z,16.50
2023-03-27T20:34:22.968Z,19.75
2023-03-27T20:36:53.493Z,17.00
2023-03-27T20:39:47.475Z,19.75
2023-03-27T20:42:17.018Z,20.00
2023-03-27T20:44:45.191Z,17.25
2023-03-27T20:47:13.979Z,23.25
2023-03-27T20:49:44.759Z,17.50
2023-03-27T20:52:15.004Z,18.00
2023-03-27T20:54:42.140Z,18.00
2023-03-27T20:57:11.378Z,15.00
2023-03-27T20:59:38.938Z,15.25
2023-03-27T21:02:06.635Z,22.00
2023-03-27T21:04:33.718Z,23.50
2023-03-27T21:07:00.780Z,19.00
2023-03-27T21:09:27.807Z,16.50
2023-03-27T21:11:55.567Z,19.00
2023-03-27T21:14:22.841Z,23.25
2023-03-27T21:16:50.564Z,18.25
2023-03-27T21:19:20.354Z,23.50
2023-03-27T21:21:47.552Z,20.50
2023-03-27T21:24:14.564Z,13.25
2023-03-27T21:26:41.662Z,16.75
2023-03-27T21:29:11.559Z,11.00
2023-03-27T21:31:39.982Z,17.50
2023-03-27T21:34:07.207Z,19.75
2023-03-27T21:36:35.490Z,12.75
2023-03-27T21:39:02.401Z,14.00
2023-03-27T21:41:29.717Z,15.00
2023-03-27T21:43:56.766Z,9.50
2023-03-27T21:46:23.736Z,21.00
2023-03-27T21:48:51.259Z,6.25
2023-03-27T21:51:19.133Z,14.00
2023-03-27T21:53:45.997Z,9.25
2023-03-27T21:56:13.174Z,12.25
2023-03-27T21:58:40.283Z,9.25
2023-03-27T22:01:07.450Z,10.50
2023-03-27T22:03:34.246Z,15.00
2023-03-27T22:06:12.323Z,14.00
2023-03-27T22:08:41.218Z,11.00
2023-03-27T22:11:11.114Z,10.50
2023-03-27T22:13:39.123Z,14.50
2023-03-27T22:16:10.962Z,17.00
2023-03-27T22:18:37.987Z,11.00
2023-03-27T22:21:19.389Z,13.00
2023-03-27T22:23:46.513Z,14.50
2023-03-27T22:26:13.391Z,18.25
2023-03-27T22:28:40.354Z,13.50
2023-03-27T22:31:07.514Z,8.75
2023-03-27T22:33:35.046Z,13.75
2023-03-27T22:36:02.295Z,14.25
2023-03-27T22:38:33.195Z,5.00
2023-03-27T22:41:00.401Z,12.25
2023-03-27T22:43:30.547Z,13.00
2023-03-27T22:46:08.987Z,10.50
2023-03-27T22:48:35.930Z,10.00
2023-03-27T22:51:02.796Z,11.00
2023-03-27T22:53:31.668Z,13.25
2023-03-27T22:56:00.275Z,9.25
2023-03-27T22:58:27.941Z,2.00
2023-03-27T23:00:55.644Z,8.25
2023-03-27T23:03:24.308Z,9.50
2023-03-27T23:05:51.503Z,10.00
2023-03-27T23:08:20.581Z,7.75
2023-03-27T23:10:55.248Z,8.75
2023-03-27T23:13:22.504Z,9.75
2023-03-27T23:15:51.870Z,6.00
2023-03-27T23:18:23.895Z,8.50
2023-03-27T23:20:55.373Z,9.00
2023-03-27T23:23:23.406Z,11.00
2023-03-27T23:25:50.247Z,3.50
2023-03-27T23:28:17.073Z,8.00
2023-03-27T23:30:51.522Z,11.00
2023-03-27T23:33:18.363Z,6.25
2023-03-27T23:35:45.315Z,10.75
2023-03-27T23:38:12.160Z,8.25
2023-03-27T23:40:38.907Z,2.00
2023-03-27T23:43:05.799Z,9.00
2023-03-27T23:45:32.582Z,10.00
2023-03-27T23:47:59.394Z,10.00
2023-03-27T23:50:26.398Z,10.00
2023-03-27T23:52:53.188Z,7.00
2023-03-27T23:55:19.944Z,9.25
2023-03-27T23:57:46.713Z,5.75
